sensor_id;sensor_type;location;lat;lon;timestamp;P1;durP1;ratioP1;P2;durP2;ratioP2
757;SDS011;363;48.764;9.172;2023-03-01T00:00:27;20.30;;;14.33;;
757;SDS011;363;48.764;9.172;2023-03-01T00:02:52;17.37;;;13.33;;
757;SDS011;363;48.764;9.172;2023-03-01T00:05:18;16.17;;;12.60;;
757;SDS011;363;48.764;9.172;2023-03-01T00:07:44;17.13;;;12.80;;
757;SDS011;363;48.764;9.172;2023-03-01T00:10:10;17.77;;;12.77;;
757;SDS011;363;48.764;9.172;2023-03-01T00:12:36;16.10;;;13.27;;
757;SDS011;363;48.764;9.172;2023-03-01T00:15:01;19.20;;;14.13;;
757;SDS011;363;48.764;9.172;2023-03-01T00:17:29;17.45;;;13.40;;
757;SDS011;363;48.764;9.172;2023-03-01T00:19:55;16.40;;;12.60;;
757;SDS011;363;48.764;9.172;2023-03-01T00:22:20;20.63;;;13.30;;
757;SDS011;363;48.764;9.172;2023-03-01T00:24:46;22.20;;;12.67;;
757;SDS011;363;48.764;9.172;2023-03-01T00:27:12;17.37;;;13.60;;
757;SDS011;363;48.764;9.172;2023-03-01T00:29:37;16.47;;;12.63;;
757;SDS011;363;48.764;9.172;2023-03-01T00:32:03;19.03;;;13.27;;
757;SDS011;363;48.764;9.172;2023-03-01T00:34:29;18.87;;;14.13;;
757;SDS011;363;48.764;9.172;2023-03-01T00:36:54;19.30;;;13.73;;
757;SDS011;363;48.764;9.172;2023-03-01T00:39:20;19.40;;;13.53;;
757;SDS011;363;48.764;9.172;2023-03-01T00:41:46;18.87;;;13.13;;
757;SDS011;363;48.764;9.172;2023-03-01T00:44:11;17.83;;;13.00;;
757;SDS011;363;48.764;9.172;2023-03-01T00:46:37;18.40;;;14.30;;
757;SDS011;363;48.764;9.172;2023-03-01T00:49:03;19.27;;;12.67;;
757;SDS011;363;48.764;9.172;2023-03-01T00:51:29;16.50;;;13.45;;
757;SDS011;363;48.764;9.172;2023-03-01T00:53:56;19.07;;;13.00;;
757;SDS011;363;48.764;9.172;2023-03-01T00:56:24;21.90;;;13.80;;
757;SDS011;363;48.764;9.172;2023-03-01T00:58:50;18.75;;;13.07;;
757;SDS011;363;48.764;9.172;2023-03-01T01:01:17;15.60;;;11.83;;
757;SDS011;363;48.764;9.172;2023-03-01T01:03:49;17.63;;;12.55;;
757;SDS011;363;48.764;9.172;2023-03-01T01:06:20;16.73;;;12.70;;
757;SDS011;363;48.764;9.172;2023-03-01T01:08:48;19.13;;;12.55;;
757;SDS011;363;48.764;9.172;2023-03-01T01:11:14;19.92;;;13.98;;
757;SDS011;363;48.764;9.172;2023-03-01T01:13:40;20.10;;;13.35;;
757;SDS011;363;48.764;9.172;2023-03-01T01:16:07;16.38;;;13.13;;
757;SDS011;363;48.764;9.172;2023-03-01T01:18:33;17.50;;;12.57;;
757;SDS011;363;48.764;9.172;2023-03-01T01:21:03;19.17;;;13.63;;
757;SDS011;363;48.764;9.172;2023-03-01T01:23:36;16.85;;;12.27;;
757;SDS011;363;48.764;9.172;2023-03-01T01:26:07;17.65;;;12.63;;
757;SDS011;363;48.764;9.172;2023-03-01T01:28:34;17.13;;;12.40;;
757;SDS011;363;48.764;9.172;2023-03-01T01:31:00;18.92;;;13.65;;
757;SDS011;363;48.764;9.172;2023-03-01T01:33:25;18.70;;;13.90;;
757;SDS011;363;48.764;9.172;2023-03-01T01:35:51;17.77;;;12.55;;
757;SDS011;363;48.764;9.172;2023-03-01T01:38:17;18.67;;;13.30;;
757;SDS011;363;48.764;9.172;2023-03-01T01:40:44;18.67;;;12.90;;
757;SDS011;363;48.764;9.172;2023-03-01T01:43:45;14.93;;;12.35;;
757;SDS011;363;48.764;9.172;2023-03-01T01:46:10;18.13;;;12.52;;
757;SDS011;363;48.764;9.172;2023-03-01T01:49:05;18.75;;;12.55;;
757;SDS011;363;48.764;9.172;2023-03-01T01:51:41;18.42;;;14.02;;
757;SDS011;363;48.764;9.172;2023-03-01T01:54:11;16.92;;;12.50;;
757;SDS011;363;48.764;9.172;2023-03-01T01:56:50;18.98;;;13.23;;
757;SDS011;363;48.764;9.172;2023-03-01T01:59:21;16.38;;;12.45;;
757;SDS011;363;48.764;9.172;2023-03-01T02:01:50;16.58;;;12.55;;
757;SDS011;363;48.764;9.172;2023-03-01T02:04:17;17.25;;;11.98;;
757;SDS011;363;48.764;9.172;2023-03-01T02:06:48;18.00;;;13.10;;
757;SDS011;363;48.764;9.172;2023-03-01T02:09:19;17.95;;;12.45;;
757;SDS011;363;48.764;9.172;2023-03-01T02:11:48;17.48;;;12.65;;
757;SDS011;363;48.764;9.172;2023-03-01T02:14:15;18.40;;;13.40;;
757;SDS011;363;48.764;9.172;2023-03-01T02:16:41;16.60;;;12.77;;
757;SDS011;363;48.764;9.172;2023-03-01T02:19:08;16.90;;;11.75;;
757;SDS011;363;48.764;9.172;2023-03-01T02:21:48;15.25;;;11.30;;
757;SDS011;363;48.764;9.172;2023-03-01T02:24:35;17.40;;;12.45;;
757;SDS011;363;48.764;9.172;2023-03-01T02:27:02;16.55;;;11.90;;
757;SDS011;363;48.764;9.172;2023-03-01T02:29:28;16.80;;;12.30;;
757;SDS011;363;48.764;9.172;2023-03-01T02:31:54;15.60;;;11.53;;
757;SDS011;363;48.764;9.172;2023-03-01T02:34:24;15.07;;;11.77;;
757;SDS011;363;48.764;9.172;2023-03-01T02:36:53;16.90;;;12.02;;
757;SDS011;363;48.764;9.172;2023-03-01T02:39:29;16.40;;;13.00;;
757;SDS011;363;48.764;9.172;2023-03-01T02:42:01;16.80;;;11.43;;
757;SDS011;363;48.764;9.172;2023-03-01T02:44:29;17.15;;;13.70;;
757;SDS011;363;48.764;9.172;2023-03-01T02:46:55;14.70;;;10.80;;
757;SDS011;363;48.764;9.172;2023-03-01T02:49:24;15.15;;;12.02;;
757;SDS011;363;48.764;9.172;2023-03-01T02:51:56;17.38;;;12.45;;
757;SDS011;363;48.764;9.172;2023-03-01T02:57:08;17.60;;;12.70;;
757;SDS011;363;48.764;9.172;2023-03-01T02:59:35;17.38;;;12.43;;
757;SDS011;363;48.764;9.172;2023-03-01T03:02:04;16.63;;;13.30;;
757;SDS011;363;48.764;9.172;2023-03-01T03:04:31;16.67;;;12.85;;
757;SDS011;363;48.764;9.172;2023-03-01T03:06:56;15.33;;;12.43;;
757;SDS011;363;48.764;9.172;2023-03-01T03:09:22;17.73;;;13.40;;
757;SDS011;363;48.764;9.172;2023-03-01T03:11:48;19.00;;;13.50;;
757;SDS011;363;48.764;9.172;2023-03-01T03:14:14;16.27;;;12.10;;
757;SDS011;363;48.764;9.172;2023-03-01T03:16:45;15.63;;;13.00;;
757;SDS011;363;48.764;9.172;2023-03-01T03:19:12;18.55;;;12.65;;
757;SDS011;363;48.764;9.172;2023-03-01T03:21:38;16.47;;;11.80;;
757;SDS011;363;48.764;9.172;2023-03-01T03:24:04;18.00;;;12.90;;
757;SDS011;363;48.764;9.172;2023-03-01T03:26:30;19.05;;;13.13;;
757;SDS011;363;48.764;9.172;2023-03-01T03:28:55;14.83;;;12.30;;
757;SDS011;363;48.764;9.172;2023-03-01T03:31:22;16.58;;;12.65;;
757;SDS011;363;48.764;9.172;2023-03-01T03:33:48;18.83;;;13.52;;
757;SDS011;363;48.764;9.172;2023-03-01T03:36:17;17.67;;;13.43;;
757;SDS011;363;48.764;9.172;2023-03-01T03:38:43;17.63;;;13.13;;
757;SDS011;363;48.764;9.172;2023-03-01T03:41:10;17.75;;;13.05;;
757;SDS011;363;48.764;9.172;2023-03-01T03:43:38;16.33;;;13.05;;
757;SDS011;363;48.764;9.172;2023-03-01T03:46:05;18.95;;;12.73;;
757;SDS011;363;48.764;9.172;2023-03-01T03:48:35;17.85;;;12.88;;
757;SDS011;363;48.764;9.172;2023-03-01T03:51:02;18.80;;;13.48;;
757;SDS011;363;48.764;9.172;2023-03-01T03:53:30;18.17;;;13.65;;
757;SDS011;363;48.764;9.172;2023-03-01T03:55:56;17.52;;;13.45;;
757;SDS011;363;48.764;9.172;2023-03-01T03:58:23;19.05;;;13.68;;
757;SDS011;363;48.764;9.172;2023-03-01T04:00:51;17.00;;;12.70;;
757;SDS011;363;48.764;9.172;2023-03-01T04:03:19;18.77;;;13.45;;
757;SDS011;363;48.764;9.172;2023-03-01T04:05:45;18.55;;;13.50;;
757;SDS011;363;48.764;9.172;2023-03-01T04:08:11;18.65;;;14.02;;
757;SDS011;363;48.764;9.172;2023-03-01T04:10:38;22.53;;;14.30;;
757;SDS011;363;48.764;9.172;2023-03-01T04:13:06;17.67;;;13.45;;
757;SDS011;363;48.764;9.172;2023-03-01T04:15:34;15.88;;;13.18;;
757;SDS011;363;48.764;9.172;2023-03-01T04:18:00;18.40;;;12.73;;
757;SDS011;363;48.764;9.172;2023-03-01T04:20:27;18.93;;;13.70;;
757;SDS011;363;48.764;9.172;2023-03-01T04:22:58;17.27;;;12.80;;
757;SDS011;363;48.764;9.172;2023-03-01T04:25:39;20.92;;;14.52;;
757;SDS011;363;48.764;9.172;2023-03-01T04:28:05;18.35;;;14.10;;
757;SDS011;363;48.764;9.172;2023-03-01T04:30:31;17.92;;;13.23;;
757;SDS011;363;48.764;9.172;2023-03-01T04:33:01;23.40;;;14.05;;
757;SDS011;363;48.764;9.172;2023-03-01T04:35:31;19.60;;;15.02;;
757;SDS011;363;48.764;9.172;2023-03-01T04:37:58;18.15;;;13.20;;
757;SDS011;363;48.764;9.172;2023-03-01T04:40:23;18.70;;;14.13;;
757;SDS011;363;48.764;9.172;2023-03-01T04:42:50;20.50;;;13.80;;
757;SDS011;363;48.764;9.172;2023-03-01T04:45:15;14.97;;;11.70;;
757;SDS011;363;48.764;9.172;2023-03-01T04:47:42;21.43;;;14.40;;
757;SDS011;363;48.764;9.172;2023-03-01T04:50:09;18.40;;;13.85;;
757;SDS011;363;48.764;9.172;2023-03-01T04:52:35;19.17;;;13.95;;
757;SDS011;363;48.764;9.172;2023-03-01T04:55:02;17.58;;;13.50;;
757;SDS011;363;48.764;9.172;2023-03-01T04:57:28;19.65;;;14.38;;
757;SDS011;363;48.764;9.172;2023-03-01T04:59:54;22.05;;;14.00;;
757;SDS011;363;48.764;9.172;2023-03-01T05:02:20;18.60;;;13.17;;
757;SDS011;363;48.764;9.172;2023-03-01T05:04:45;16.57;;;13.20;;
757;SDS011;363;48.764;9.172;2023-03-01T05:07:11;19.20;;;14.17;;
757;SDS011;363;48.764;9.172;2023-03-01T05:09:38;16.35;;;12.40;;
757;SDS011;363;48.764;9.172;2023-03-01T05:12:03;17.07;;;13.30;;
757;SDS011;363;48.764;9.172;2023-03-01T05:14:29;18.17;;;14.05;;
757;SDS011;363;48.764;9.172;2023-03-01T05:16:55;20.33;;;14.17;;
757;SDS011;363;48.764;9.172;2023-03-01T05:19:29;16.83;;;12.88;;
757;SDS011;363;48.764;9.172;2023-03-01T05:21:56;18.75;;;13.73;;
757;SDS011;363;48.764;9.172;2023-03-01T05:24:32;19.23;;;13.70;;
757;SDS011;363;48.764;9.172;2023-03-01T05:27:00;17.27;;;13.23;;
757;SDS011;363;48.764;9.172;2023-03-01T05:29:27;16.90;;;12.85;;
757;SDS011;363;48.764;9.172;2023-03-01T05:34:27;16.42;;;12.95;;
757;SDS011;363;48.764;9.172;2023-03-01T05:36:55;17.00;;;13.60;;
757;SDS011;363;48.764;9.172;2023-03-01T05:39:22;17.35;;;13.88;;
757;SDS011;363;48.764;9.172;2023-03-01T05:41:57;19.77;;;14.00;;
757;SDS011;363;48.764;9.172;2023-03-01T05:44:24;21.63;;;14.57;;
757;SDS011;363;48.764;9.172;2023-03-01T05:46:50;17.60;;;14.10;;
757;SDS011;363;48.764;9.172;2023-03-01T05:49:16;18.17;;;13.20;;
757;SDS011;363;48.764;9.172;2023-03-01T05:51:42;19.23;;;13.70;;
757;SDS011;363;48.764;9.172;2023-03-01T05:54:12;18.63;;;13.60;;
757;SDS011;363;48.764;9.172;2023-03-01T05:56:38;22.97;;;14.90;;
757;SDS011;363;48.764;9.172;2023-03-01T05:59:04;19.30;;;13.97;;
757;SDS011;363;48.764;9.172;2023-03-01T06:01:30;19.63;;;14.55;;
757;SDS011;363;48.764;9.172;2023-03-01T06:03:57;19.23;;;15.07;;
757;SDS011;363;48.764;9.172;2023-03-01T06:06:23;18.07;;;13.93;;
757;SDS011;363;48.764;9.172;2023-03-01T06:08:49;19.08;;;12.98;;
757;SDS011;363;48.764;9.172;2023-03-01T06:11:15;19.25;;;13.45;;
757;SDS011;363;48.764;9.172;2023-03-01T06:13:42;18.90;;;14.30;;
757;SDS011;363;48.764;9.172;2023-03-01T06:16:08;19.15;;;14.25;;
757;SDS011;363;48.764;9.172;2023-03-01T06:18:34;19.05;;;13.15;;
757;SDS011;363;48.764;9.172;2023-03-01T06:21:01;20.10;;;14.57;;
757;SDS011;363;48.764;9.172;2023-03-01T06:23:26;22.40;;;14.60;;
757;SDS011;363;48.764;9.172;2023-03-01T06:25:52;19.30;;;14.50;;
757;SDS011;363;48.764;9.172;2023-03-01T06:28:18;19.40;;;13.57;;
757;SDS011;363;48.764;9.172;2023-03-01T06:30:44;19.33;;;14.07;;
757;SDS011;363;48.764;9.172;2023-03-01T06:33:09;19.60;;;13.53;;
757;SDS011;363;48.764;9.172;2023-03-01T06:35:35;20.17;;;13.57;;
757;SDS011;363;48.764;9.172;2023-03-01T06:38:01;19.97;;;13.47;;
757;SDS011;363;48.764;9.172;2023-03-01T06:40:29;19.20;;;14.82;;
757;SDS011;363;48.764;9.172;2023-03-01T06:42:56;19.80;;;14.45;;
757;SDS011;363;48.764;9.172;2023-03-01T06:45:22;19.42;;;14.40;;
757;SDS011;363;48.764;9.172;2023-03-01T06:47:48;20.63;;;14.03;;
757;SDS011;363;48.764;9.172;2023-03-01T06:50:14;16.98;;;13.68;;
757;SDS011;363;48.764;9.172;2023-03-01T06:52:41;19.23;;;12.88;;
757;SDS011;363;48.764;9.172;2023-03-01T06:55:08;22.02;;;13.80;;
757;SDS011;363;48.764;9.172;2023-03-01T06:57:34;18.07;;;14.17;;
757;SDS011;363;48.764;9.172;2023-03-01T07:00:00;19.17;;;14.47;;
757;SDS011;363;48.764;9.172;2023-03-01T07:02:25;23.60;;;14.47;;
757;SDS011;363;48.764;9.172;2023-03-01T07:04:51;19.30;;;15.00;;
757;SDS011;363;48.764;9.172;2023-03-01T07:07:17;22.90;;;14.98;;
757;SDS011;363;48.764;9.172;2023-03-01T07:09:46;17.55;;;13.57;;
757;SDS011;363;48.764;9.172;2023-03-01T07:12:13;19.55;;;14.88;;
757;SDS011;363;48.764;9.172;2023-03-01T07:14:39;20.53;;;14.10;;
757;SDS011;363;48.764;9.172;2023-03-01T07:17:05;24.30;;;15.87;;
757;SDS011;363;48.764;9.172;2023-03-01T07:19:31;18.25;;;14.63;;
757;SDS011;363;48.764;9.172;2023-03-01T07:21:57;20.93;;;14.60;;
757;SDS011;363;48.764;9.172;2023-03-01T07:24:22;22.80;;;15.37;;
757;SDS011;363;48.764;9.172;2023-03-01T07:26:48;17.60;;;14.73;;
757;SDS011;363;48.764;9.172;2023-03-01T07:29:15;21.02;;;14.73;;
757;SDS011;363;48.764;9.172;2023-03-01T07:31:41;19.48;;;13.45;;
757;SDS011;363;48.764;9.172;2023-03-01T07:34:07;18.50;;;14.20;;
757;SDS011;363;48.764;9.172;2023-03-01T07:36:32;21.30;;;15.60;;
757;SDS011;363;48.764;9.172;2023-03-01T07:38:58;20.33;;;15.73;;
757;SDS011;363;48.764;9.172;2023-03-01T07:41:27;17.77;;;13.80;;
757;SDS011;363;48.764;9.172;2023-03-01T07:43:53;22.00;;;14.68;;
757;SDS011;363;48.764;9.172;2023-03-01T07:46:18;20.13;;;15.53;;
757;SDS011;363;48.764;9.172;2023-03-01T07:48:44;23.23;;;15.50;;
757;SDS011;363;48.764;9.172;2023-03-01T07:51:09;17.20;;;13.37;;
757;SDS011;363;48.764;9.172;2023-03-01T07:53:35;20.87;;;14.30;;
757;SDS011;363;48.764;9.172;2023-03-01T07:56:05;18.80;;;14.17;;
757;SDS011;363;48.764;9.172;2023-03-01T07:58:33;20.50;;;14.88;;
757;SDS011;363;48.764;9.172;2023-03-01T08:01:01;21.92;;;14.93;;
757;SDS011;363;48.764;9.172;2023-03-01T08:03:28;23.45;;;17.20;;
757;SDS011;363;48.764;9.172;2023-03-01T08:05:53;19.87;;;14.80;;
757;SDS011;363;48.764;9.172;2023-03-01T08:08:19;21.90;;;15.37;;
757;SDS011;363;48.764;9.172;2023-03-01T08:10:45;22.93;;;15.10;;
757;SDS011;363;48.764;9.172;2023-03-01T08:13:10;19.73;;;14.33;;
757;SDS011;363;48.764;9.172;2023-03-01T08:15:36;17.70;;;13.57;;
757;SDS011;363;48.764;9.172;2023-03-01T08:18:01;20.60;;;16.00;;
757;SDS011;363;48.764;9.172;2023-03-01T08:20:27;24.37;;;16.53;;
757;SDS011;363;48.764;9.172;2023-03-01T08:22:53;22.87;;;16.47;;
757;SDS011;363;48.764;9.172;2023-03-01T08:25:18;19.63;;;15.40;;
757;SDS011;363;48.764;9.172;2023-03-01T08:27:44;20.87;;;15.17;;
757;SDS011;363;48.764;9.172;2023-03-01T08:30:10;20.67;;;15.10;;
757;SDS011;363;48.764;9.172;2023-03-01T08:32:37;19.80;;;14.68;;
757;SDS011;363;48.764;9.172;2023-03-01T08:35:03;19.40;;;14.30;;
757;SDS011;363;48.764;9.172;2023-03-01T08:37:30;20.17;;;13.75;;
757;SDS011;363;48.764;9.172;2023-03-01T08:39:57;20.35;;;15.57;;
757;SDS011;363;48.764;9.172;2023-03-01T08:42:23;20.80;;;15.60;;
757;SDS011;363;48.764;9.172;2023-03-01T08:44:49;20.17;;;14.80;;
757;SDS011;363;48.764;9.172;2023-03-01T08:47:14;20.43;;;15.70;;
757;SDS011;363;48.764;9.172;2023-03-01T08:49:40;19.63;;;15.67;;
757;SDS011;363;48.764;9.172;2023-03-01T08:52:06;20.80;;;15.20;;
757;SDS011;363;48.764;9.172;2023-03-01T08:54:31;19.63;;;15.50;;
757;SDS011;363;48.764;9.172;2023-03-01T08:56:57;19.10;;;14.90;;
757;SDS011;363;48.764;9.172;2023-03-01T08:59:24;18.10;;;14.85;;
757;SDS011;363;48.764;9.172;2023-03-01T09:01:50;17.45;;;13.82;;
757;SDS011;363;48.764;9.172;2023-03-01T09:04:16;18.40;;;14.37;;
757;SDS011;363;48.764;9.172;2023-03-01T09:06:42;20.27;;;16.20;;
757;SDS011;363;48.764;9.172;2023-03-01T09:09:12;21.48;;;15.02;;
757;SDS011;363;48.764;9.172;2023-03-01T09:11:40;20.58;;;14.60;;
757;SDS011;363;48.764;9.172;2023-03-01T09:14:06;19.63;;;15.70;;
757;SDS011;363;48.764;9.172;2023-03-01T09:16:32;18.20;;;15.40;;
757;SDS011;363;48.764;9.172;2023-03-01T09:19:00;16.75;;;14.90;;
757;SDS011;363;48.764;9.172;2023-03-01T09:21:27;19.15;;;15.30;;
757;SDS011;363;48.764;9.172;2023-03-01T09:23:52;21.00;;;16.10;;
757;SDS011;363;48.764;9.172;2023-03-01T09:26:19;20.87;;;16.10;;
757;SDS011;363;48.764;9.172;2023-03-01T09:28:47;18.67;;;14.40;;
757;SDS011;363;48.764;9.172;2023-03-01T09:31:16;21.25;;;15.45;;
757;SDS011;363;48.764;9.172;2023-03-01T09:33:45;23.73;;;17.27;;
757;SDS011;363;48.764;9.172;2023-03-01T09:36:13;18.90;;;15.55;;
757;SDS011;363;48.764;9.172;2023-03-01T09:38:43;18.67;;;14.98;;
757;SDS011;363;48.764;9.172;2023-03-01T09:43:46;20.27;;;15.25;;
757;SDS011;363;48.764;9.172;2023-03-01T09:46:19;18.65;;;14.77;;
757;SDS011;363;48.764;9.172;2023-03-01T09:51:18;18.88;;;15.57;;
757;SDS011;363;48.764;9.172;2023-03-01T09:53:48;22.60;;;16.95;;
757;SDS011;363;48.764;9.172;2023-03-01T09:56:29;19.93;;;15.43;;
757;SDS011;363;48.764;9.172;2023-03-01T09:59:47;21.15;;;15.93;;
757;SDS011;363;48.764;9.172;2023-03-01T10:04:50;19.67;;;16.20;;
757;SDS011;363;48.764;9.172;2023-03-01T10:09:49;17.48;;;14.70;;
757;SDS011;363;48.764;9.172;2023-03-01T10:12:20;26.00;;;18.33;;
757;SDS011;363;48.764;9.172;2023-03-01T10:15:05;15.10;;;13.27;;
757;SDS011;363;48.764;9.172;2023-03-01T10:17:37;18.30;;;14.38;;
757;SDS011;363;48.764;9.172;2023-03-01T10:22:51;19.17;;;15.52;;
757;SDS011;363;48.764;9.172;2023-03-01T10:28:20;16.35;;;14.63;;
757;SDS011;363;48.764;9.172;2023-03-01T10:31:09;16.77;;;14.32;;
757;SDS011;363;48.764;9.172;2023-03-01T10:33:39;17.55;;;15.65;;
757;SDS011;363;48.764;9.172;2023-03-01T10:36:06;21.67;;;15.65;;
757;SDS011;363;48.764;9.172;2023-03-01T10:38:47;20.92;;;16.90;;
757;SDS011;363;48.764;9.172;2023-03-01T10:41:24;18.38;;;15.40;;
757;SDS011;363;48.764;9.172;2023-03-01T10:51:40;18.02;;;15.18;;
757;SDS011;363;48.764;9.172;2023-03-01T10:56:51;16.10;;;12.98;;
757;SDS011;363;48.764;9.172;2023-03-01T10:59:34;17.52;;;14.52;;
757;SDS011;363;48.764;9.172;2023-03-01T11:02:03;16.00;;;14.30;;
757;SDS011;363;48.764;9.172;2023-03-01T11:04:29;17.10;;;15.07;;
757;SDS011;363;48.764;9.172;2023-03-01T11:06:58;19.07;;;15.83;;
757;SDS011;363;48.764;9.172;2023-03-01T11:09:25;19.30;;;16.30;;
757;SDS011;363;48.764;9.172;2023-03-01T11:11:57;17.77;;;14.73;;
757;SDS011;363;48.764;9.172;2023-03-01T11:14:37;17.20;;;14.48;;
757;SDS011;363;48.764;9.172;2023-03-01T11:17:29;15.80;;;13.80;;
757;SDS011;363;48.764;9.172;2023-03-01T11:20:39;16.95;;;14.90;;
757;SDS011;363;48.764;9.172;2023-03-01T11:22:54;15.73;;;14.13;;
757;SDS011;363;48.764;9.172;2023-03-01T11:25:32;21.25;;;15.45;;
757;SDS011;363;48.764;9.172;2023-03-01T11:28:05;17.00;;;14.10;;
757;SDS011;363;48.764;9.172;2023-03-01T11:33:41;16.98;;;13.90;;
757;SDS011;363;48.764;9.172;2023-03-01T11:38:54;16.25;;;13.18;;
757;SDS011;363;48.764;9.172;2023-03-01T11:41:23;16.40;;;14.10;;
757;SDS011;363;48.764;9.172;2023-03-01T11:46:43;16.63;;;13.60;;
757;SDS011;363;48.764;9.172;2023-03-01T11:55:17;18.52;;;14.15;;
757;SDS011;363;48.764;9.172;2023-03-01T12:00:42;18.50;;;14.47;;
757;SDS011;363;48.764;9.172;2023-03-01T12:03:37;17.65;;;13.90;;
757;SDS011;363;48.764;9.172;2023-03-01T12:20:13;18.85;;;14.88;;
757;SDS011;363;48.764;9.172;2023-03-01T12:26:07;16.52;;;13.23;;
757;SDS011;363;48.764;9.172;2023-03-01T12:36:39;15.60;;;12.90;;
757;SDS011;363;48.764;9.172;2023-03-01T12:39:32;15.02;;;11.88;;
757;SDS011;363;48.764;9.172;2023-03-01T12:50:47;15.57;;;12.63;;
757;SDS011;363;48.764;9.172;2023-03-01T12:53:34;14.10;;;12.13;;
757;SDS011;363;48.764;9.172;2023-03-01T12:56:08;17.15;;;13.23;;
757;SDS011;363;48.764;9.172;2023-03-01T13:01:40;14.60;;;11.57;;
757;SDS011;363;48.764;9.172;2023-03-01T13:04:43;14.80;;;11.77;;
757;SDS011;363;48.764;9.172;2023-03-01T13:07:41;15.45;;;12.35;;
757;SDS011;363;48.764;9.172;2023-03-01T13:13:02;15.77;;;12.50;;
757;SDS011;363;48.764;9.172;2023-03-01T13:15:29;14.80;;;11.43;;
757;SDS011;363;48.764;9.172;2023-03-01T13:18:00;14.90;;;12.05;;
757;SDS011;363;48.764;9.172;2023-03-01T13:23:30;13.85;;;12.27;;
757;SDS011;363;48.764;9.172;2023-03-01T13:33:44;13.02;;;11.70;;
757;SDS011;363;48.764;9.172;2023-03-01T13:46:45;16.27;;;12.25;;
757;SDS011;363;48.764;9.172;2023-03-01T13:49:18;14.38;;;12.82;;
757;SDS011;363;48.764;9.172;2023-03-01T13:51:48;15.20;;;13.60;;
757;SDS011;363;48.764;9.172;2023-03-01T13:54:15;14.55;;;12.88;;
757;SDS011;363;48.764;9.172;2023-03-01T13:56:48;17.77;;;14.32;;
757;SDS011;363;48.764;9.172;2023-03-01T13:59:21;17.63;;;13.50;;
757;SDS011;363;48.764;9.172;2023-03-01T14:01:57;17.77;;;14.95;;
757;SDS011;363;48.764;9.172;2023-03-01T14:04:29;16.58;;;14.00;;
757;SDS011;363;48.764;9.172;2023-03-01T14:09:37;18.95;;;14.10;;
757;SDS011;363;48.764;9.172;2023-03-01T14:12:10;18.65;;;14.48;;
757;SDS011;363;48.764;9.172;2023-03-01T14:15:17;19.60;;;14.38;;
757;SDS011;363;48.764;9.172;2023-03-01T14:17:49;18.33;;;14.15;;
757;SDS011;363;48.764;9.172;2023-03-01T14:20:27;18.58;;;14.40;;
757;SDS011;363;48.764;9.172;2023-03-01T14:23:01;19.75;;;14.82;;
757;SDS011;363;48.764;9.172;2023-03-01T14:25:34;18.48;;;15.20;;
757;SDS011;363;48.764;9.172;2023-03-01T14:30:43;17.20;;;14.23;;
757;SDS011;363;48.764;9.172;2023-03-01T14:33:24;18.25;;;13.48;;
757;SDS011;363;48.764;9.172;2023-03-01T14:35:57;17.17;;;14.80;;
757;SDS011;363;48.764;9.172;2023-03-01T14:41:03;18.23;;;14.50;;
757;SDS011;363;48.764;9.172;2023-03-01T14:43:38;18.80;;;14.38;;
757;SDS011;363;48.764;9.172;2023-03-01T14:46:16;16.67;;;14.43;;
757;SDS011;363;48.764;9.172;2023-03-01T14:49:23;20.60;;;13.70;;
757;SDS011;363;48.764;9.172;2023-03-01T14:57:05;22.63;;;15.15;;
757;SDS011;363;48.764;9.172;2023-03-01T14:59:32;17.13;;;14.52;;
757;SDS011;363;48.764;9.172;2023-03-01T15:01:59;18.85;;;14.85;;
757;SDS011;363;48.764;9.172;2023-03-01T15:04:26;18.63;;;14.23;;
757;SDS011;363;48.764;9.172;2023-03-01T15:06:53;22.30;;;14.52;;
757;SDS011;363;48.764;9.172;2023-03-01T15:09:20;17.60;;;14.35;;
757;SDS011;363;48.764;9.172;2023-03-01T15:11:47;22.85;;;16.23;;
757;SDS011;363;48.764;9.172;2023-03-01T15:14:24;33.30;;;14.73;;
757;SDS011;363;48.764;9.172;2023-03-01T15:16:54;16.70;;;13.60;;
757;SDS011;363;48.764;9.172;2023-03-01T15:19:20;18.20;;;14.77;;
757;SDS011;363;48.764;9.172;2023-03-01T15:21:51;19.27;;;15.00;;
757;SDS011;363;48.764;9.172;2023-03-01T15:24:20;22.73;;;15.37;;
757;SDS011;363;48.764;9.172;2023-03-01T15:26:56;21.15;;;16.95;;
757;SDS011;363;48.764;9.172;2023-03-01T15:29:27;20.35;;;14.80;;
757;SDS011;363;48.764;9.172;2023-03-01T15:31:56;18.90;;;13.65;;
757;SDS011;363;48.764;9.172;2023-03-01T15:34:35;17.85;;;14.93;;
757;SDS011;363;48.764;9.172;2023-03-01T15:37:03;17.23;;;13.50;;
757;SDS011;363;48.764;9.172;2023-03-01T15:39:53;19.48;;;14.88;;
757;SDS011;363;48.764;9.172;2023-03-01T15:47:40;19.88;;;13.45;;
757;SDS011;363;48.764;9.172;2023-03-01T15:50:15;17.48;;;13.35;;
757;SDS011;363;48.764;9.172;2023-03-01T15:52:44;19.42;;;13.95;;
757;SDS011;363;48.764;9.172;2023-03-01T15:55:17;18.47;;;14.53;;
757;SDS011;363;48.764;9.172;2023-03-01T15:57:45;17.20;;;14.27;;
757;SDS011;363;48.764;9.172;2023-03-01T16:00:11;17.80;;;13.43;;
757;SDS011;363;48.764;9.172;2023-03-01T16:02:39;18.02;;;14.30;;
757;SDS011;363;48.764;9.172;2023-03-01T16:05:05;17.85;;;14.00;;
757;SDS011;363;48.764;9.172;2023-03-01T16:07:52;18.92;;;14.48;;
757;SDS011;363;48.764;9.172;2023-03-01T16:10:19;19.10;;;13.60;;
757;SDS011;363;48.764;9.172;2023-03-01T16:12:49;18.73;;;13.90;;
757;SDS011;363;48.764;9.172;2023-03-01T16:15:27;16.85;;;13.90;;
757;SDS011;363;48.764;9.172;2023-03-01T16:17:55;18.83;;;14.35;;
757;SDS011;363;48.764;9.172;2023-03-01T16:20:23;17.13;;;13.65;;
757;SDS011;363;48.764;9.172;2023-03-01T16:22:49;18.30;;;12.73;;
757;SDS011;363;48.764;9.172;2023-03-01T16:25:16;19.38;;;13.20;;
757;SDS011;363;48.764;9.172;2023-03-01T16:27:44;16.13;;;12.80;;
757;SDS011;363;48.764;9.172;2023-03-01T16:30:11;19.77;;;12.93;;
757;SDS011;363;48.764;9.172;2023-03-01T16:32:38;15.30;;;13.13;;
757;SDS011;363;48.764;9.172;2023-03-01T16:35:05;17.17;;;12.43;;
757;SDS011;363;48.764;9.172;2023-03-01T16:37:33;17.02;;;13.25;;
757;SDS011;363;48.764;9.172;2023-03-01T16:39:59;18.15;;;13.77;;
757;SDS011;363;48.764;9.172;2023-03-01T16:42:25;18.70;;;13.60;;
757;SDS011;363;48.764;9.172;2023-03-01T16:44:56;16.60;;;13.70;;
757;SDS011;363;48.764;9.172;2023-03-01T16:47:22;16.50;;;13.02;;
757;SDS011;363;48.764;9.172;2023-03-01T16:49:51;18.83;;;14.43;;
757;SDS011;363;48.764;9.172;2023-03-01T16:52:17;16.00;;;13.02;;
757;SDS011;363;48.764;9.172;2023-03-01T16:54:44;17.25;;;13.20;;
757;SDS011;363;48.764;9.172;2023-03-01T16:57:09;17.50;;;12.13;;
757;SDS011;363;48.764;9.172;2023-03-01T16:59:35;17.67;;;13.17;;
757;SDS011;363;48.764;9.172;2023-03-01T17:02:02;15.68;;;12.93;;
757;SDS011;363;48.764;9.172;2023-03-01T17:04:28;16.17;;;12.93;;
757;SDS011;363;48.764;9.172;2023-03-01T17:06:54;16.35;;;12.40;;
757;SDS011;363;48.764;9.172;2023-03-01T17:09:20;18.17;;;13.93;;
757;SDS011;363;48.764;9.172;2023-03-01T17:11:47;17.65;;;12.95;;
757;SDS011;363;48.764;9.172;2023-03-01T17:14:14;21.70;;;14.82;;
757;SDS011;363;48.764;9.172;2023-03-01T17:16:41;17.75;;;13.57;;
757;SDS011;363;48.764;9.172;2023-03-01T17:19:07;15.88;;;12.82;;
757;SDS011;363;48.764;9.172;2023-03-01T17:21:33;16.97;;;13.80;;
757;SDS011;363;48.764;9.172;2023-03-01T17:23:58;19.40;;;15.57;;
757;SDS011;363;48.764;9.172;2023-03-01T17:26:25;21.60;;;15.18;;
757;SDS011;363;48.764;9.172;2023-03-01T17:28:53;21.08;;;14.70;;
757;SDS011;363;48.764;9.172;2023-03-01T17:31:19;18.70;;;13.68;;
757;SDS011;363;48.764;9.172;2023-03-01T17:33:45;23.15;;;14.90;;
757;SDS011;363;48.764;9.172;2023-03-01T17:36:11;15.93;;;13.63;;